createdAt,value
2018-01-16T00:02:21.049Z,3.40
2018-01-16T00:04:50.287Z,3.30
2018-01-16T00:07:19.276Z,3.40
2018-01-16T00:09:47.468Z,3.40
2018-01-16T00:12:16.367Z,3.30
2018-01-16T00:14:44.543Z,3.30
2018-01-16T00:17:12.676Z,3.40
2018-01-16T00:19:40.812Z,3.40
2018-01-16T00:22:09.692Z,3.50
2018-01-16T00:24:38.593Z,3.50
2018-01-16T00:27:06.761Z,3.50
2018-01-16T00:29:34.873Z,3.50
2018-01-16T00:32:03.019Z,3.50
2018-01-16T00:34:31.172Z,3.50
2018-01-16T00:36:59.300Z,3.50
2018-01-16T00:39:27.461Z,3.60
2018-01-16T00:41:55.602Z,3.60
2018-01-16T00:44:24.508Z,3.50
2018-01-16T00:46:52.631Z,3.50
2018-01-16T00:49:20.778Z,3.50
2018-01-16T00:51:48.962Z,3.60
2018-01-16T00:54:17.126Z,3.50
2018-01-16T00:56:45.244Z,3.50
2018-01-16T00:59:13.413Z,3.50
2018-01-16T01:01:41.560Z,3.50
2018-01-16T01:04:09.697Z,3.50
2018-01-16T01:06:37.851Z,3.50
2018-01-16T01:09:06.005Z,3.50
2018-01-16T01:11:34.162Z,3.50
2018-01-16T01:14:02.297Z,3.50
2018-01-16T01:16:30.436Z,3.50
2018-01-16T01:18:58.564Z,3.50
2018-01-16T01:21:26.728Z,3.40
2018-01-16T01:23:54.866Z,3.40
2018-01-16T01:26:22.995Z,3.40
2018-01-16T01:28:51.148Z,3.40
2018-01-16T01:31:19.284Z,3.50
2018-01-16T01:33:47.450Z,3.50
2018-01-16T01:36:15.560Z,3.50
2018-01-16T01:38:43.705Z,3.50
2018-01-16T01:41:11.840Z,3.50
2018-01-16T01:43:40.023Z,3.40
2018-01-16T01:46:08.128Z,3.40
2018-01-16T01:48:36.292Z,3.40
2018-01-16T01:51:04.483Z,3.40
2018-01-16T01:53:32.612Z,3.40
2018-01-16T01:56:00.736Z,3.40
2018-01-16T01:58:28.917Z,3.40
2018-01-16T02:00:57.244Z,3.40
2018-01-16T02:03:26.709Z,3.50
2018-01-16T02:05:55.852Z,3.50
2018-01-16T02:08:24.357Z,3.50
2018-01-16T02:10:52.963Z,3.50
2018-01-16T02:13:21.112Z,3.50
2018-01-16T02:15:50.782Z,3.50
2018-01-16T02:18:19.000Z,3.50
2018-01-16T02:20:48.013Z,3.50
2018-01-16T02:23:16.433Z,3.50
2018-01-16T02:25:45.860Z,3.50
2018-01-16T02:28:19.046Z,3.50
2018-01-16T02:30:48.521Z,3.50
2018-01-16T02:33:16.756Z,3.50
2018-01-16T02:35:45.027Z,3.60
2018-01-16T02:38:14.071Z,3.60
2018-01-16T02:40:42.297Z,3.60
2018-01-16T02:43:20.932Z,3.70
2018-01-16T02:45:50.667Z,3.60
2018-01-16T02:48:18.872Z,3.60
2018-01-16T02:50:47.039Z,3.70
2018-01-16T02:53:15.252Z,3.70
2018-01-16T02:55:43.441Z,3.70
2018-01-16T02:58:12.411Z,3.70
2018-01-16T03:00:40.584Z,3.70
2018-01-16T03:03:08.864Z,3.70
2018-01-16T03:05:37.789Z,3.70
2018-01-16T03:08:07.838Z,3.70
2018-01-16T03:10:36.053Z,3.70
2018-01-16T03:13:04.626Z,3.70
2018-01-16T03:15:32.997Z,3.70
2018-01-16T03:18:01.434Z,3.70
2018-01-16T03:20:30.514Z,3.80
2018-01-16T03:22:59.518Z,3.80
2018-01-16T03:25:27.910Z,3.80
2018-01-16T03:27:56.065Z,3.80
2018-01-16T03:30:24.287Z,3.80
2018-01-16T03:32:52.435Z,3.80
2018-01-16T03:35:20.553Z,3.80
2018-01-16T03:37:48.696Z,3.90
2018-01-16T03:40:17.593Z,4.00
2018-01-16T03:42:45.758Z,4.00
2018-01-16T03:45:14.722Z,4.10
2018-01-16T03:47:43.023Z,4.10
2018-01-16T03:50:11.145Z,4.00
2018-01-16T03:52:39.368Z,4.10
2018-01-16T03:55:07.675Z,4.10
2018-01-16T03:57:35.869Z,4.20
2018-01-16T04:00:04.485Z,4.10
2018-01-16T04:02:33.530Z,4.10
2018-01-16T04:05:01.910Z,4.10
2018-01-16T04:07:30.153Z,4.20
2018-01-16T04:09:59.116Z,4.10
2018-01-16T04:12:27.233Z,4.10
2018-01-16T04:14:55.379Z,4.20
2018-01-16T04:17:23.518Z,4.20
2018-01-16T04:19:51.724Z,4.20
2018-01-16T04:22:19.824Z,4.20
2018-01-16T04:24:47.955Z,4.20
2018-01-16T04:27:16.929Z,4.30
2018-01-16T04:29:45.142Z,4.30
2018-01-16T04:32:13.371Z,4.30
2018-01-16T04:34:41.501Z,4.30
2018-01-16T04:37:09.668Z,4.30
2018-01-16T04:39:37.903Z,4.40
2018-01-16T04:42:06.940Z,4.50
2018-01-16T04:44:35.108Z,4.40
2018-01-16T04:47:03.311Z,4.40
2018-01-16T04:49:31.500Z,4.50
2018-01-16T04:51:59.744Z,4.50
2018-01-16T04:54:27.941Z,4.40
2018-01-16T04:56:56.111Z,4.40
2018-01-16T04:59:24.421Z,4.40
2018-01-16T05:01:53.383Z,4.40
2018-01-16T05:04:21.583Z,4.40
2018-01-16T05:06:50.474Z,4.50
2018-01-16T05:09:19.532Z,4.50
2018-01-16T05:11:47.903Z,4.50
2018-01-16T05:14:16.123Z,4.50
2018-01-16T05:16:44.254Z,4.50
2018-01-16T05:19:12.409Z,4.50
2018-01-16T05:21:40.673Z,4.50
2018-01-16T05:24:08.885Z,4.40
2018-01-16T05:26:38.030Z,4.50
2018-01-16T05:29:07.000Z,4.50
2018-01-16T05:31:35.134Z,4.60
2018-01-16T05:34:03.288Z,4.70
2018-01-16T05:36:31.513Z,4.70
2018-01-16T05:39:00.615Z,4.60
2018-01-16T05:41:29.659Z,4.60
2018-01-16T05:43:58.029Z,4.60
2018-01-16T05:46:26.224Z,4.70
2018-01-16T05:48:54.373Z,4.70
2018-01-16T05:51:22.529Z,4.80
2018-01-16T05:53:50.765Z,4.70
2018-01-16T05:56:18.991Z,4.70
2018-01-16T05:58:47.184Z,4.70
2018-01-16T06:01:15.246Z,4.70
2018-01-16T06:03:43.492Z,4.70
2018-01-16T06:06:11.687Z,4.70
2018-01-16T06:08:39.841Z,4.70
2018-01-16T06:11:08.051Z,4.80
2018-01-16T06:13:36.266Z,4.80
2018-01-16T06:16:05.349Z,4.90
2018-01-16T06:18:33.485Z,4.80
2018-01-16T06:21:01.632Z,4.90
2018-01-16T06:23:29.767Z,4.90
2018-01-16T06:25:57.876Z,5.00
2018-01-16T06:28:26.037Z,4.90
2018-01-16T06:30:54.171Z,4.90
2018-01-16T06:33:22.369Z,4.80
2018-01-16T06:35:50.488Z,4.80
2018-01-16T06:38:18.612Z,4.80
2018-01-16T06:40:46.733Z,4.80
2018-01-16T06:43:14.877Z,4.70
2018-01-16T06:45:43.012Z,4.70
2018-01-16T06:48:11.148Z,4.70
2018-01-16T06:50:39.273Z,4.80
2018-01-16T06:53:07.381Z,4.80
2018-01-16T06:55:35.517Z,4.80
2018-01-16T06:58:03.637Z,4.80
2018-01-16T07:00:31.764Z,4.70
2018-01-16T07:02:59.871Z,4.70
2018-01-16T07:05:28.026Z,4.70
2018-01-16T07:07:56.149Z,4.70
2018-01-16T07:10:24.286Z,4.80
2018-01-16T07:12:52.481Z,4.80
2018-01-16T07:15:21.366Z,4.70
2018-01-16T07:17:50.261Z,4.80
2018-01-16T07:20:18.372Z,4.70
2018-01-16T07:22:46.514Z,4.70
2018-01-16T07:25:15.640Z,4.60
2018-01-16T07:27:43.774Z,4.60
2018-01-16T07:30:11.904Z,4.50
2018-01-16T07:32:40.056Z,4.50
2018-01-16T07:35:08.171Z,4.50
2018-01-16T07:37:36.308Z,4.40
2018-01-16T07:40:04.528Z,4.40
2018-01-16T07:42:33.411Z,4.40
2018-01-16T07:45:02.306Z,4.30
2018-01-16T07:47:30.423Z,4.30
2018-01-16T07:49:59.320Z,4.30
2018-01-16T07:52:27.432Z,4.30
2018-01-16T07:54:56.408Z,4.40
2018-01-16T07:57:24.529Z,4.40
2018-01-16T07:59:52.656Z,4.40
2018-01-16T08:02:21.532Z,4.50
2018-01-16T08:04:49.656Z,4.50
2018-01-16T08:07:17.801Z,4.50
2018-01-16T08:09:45.941Z,4.50
2018-01-16T08:12:14.056Z,4.40
2018-01-16T08:14:42.217Z,4.40
2018-01-16T08:17:11.108Z,4.40
2018-01-16T08:19:39.979Z,4.40
2018-01-16T08:22:08.868Z,4.30
2018-01-16T08:24:36.979Z,4.40
2018-01-16T08:27:05.119Z,4.40
2018-01-16T08:29:33.992Z,4.40
2018-01-16T08:32:02.132Z,4.30
2018-01-16T08:34:30.257Z,4.40
2018-01-16T08:36:59.125Z,4.50
2018-01-16T08:39:27.582Z,4.50
2018-01-16T08:41:55.684Z,4.60
2018-01-16T08:44:23.812Z,4.70
2018-01-16T08:46:51.913Z,4.80
2018-01-16T08:49:20.125Z,4.80
2018-01-16T08:51:48.310Z,4.70
2018-01-16T08:54:16.529Z,4.80
2018-01-16T08:56:44.829Z,4.80
2018-01-16T08:59:14.883Z,4.90
2018-01-16T09:01:43.171Z,4.90
2018-01-16T09:04:11.356Z,4.90
2018-01-16T09:06:40.482Z,4.80
2018-01-16T09:09:08.727Z,4.80
2018-01-16T09:11:36.860Z,4.90
2018-01-16T09:14:05.004Z,4.90
2018-01-16T09:16:33.880Z,5.00
2018-01-16T09:19:02.004Z,4.90
2018-01-16T09:21:45.781Z,5.10
2018-01-16T09:24:29.732Z,5.00
2018-01-16T09:27:13.512Z,5.10
2018-01-16T09:32:48.766Z,5.10
2018-01-16T09:35:31.812Z,5.20
2018-01-16T09:38:00.693Z,5.30
2018-01-16T09:40:28.813Z,5.20
2018-01-16T09:42:56.936Z,5.30
2018-01-16T09:45:25.066Z,5.40
2018-01-16T09:47:53.204Z,5.40
2018-01-16T09:50:21.310Z,5.50
2018-01-16T09:52:49.440Z,5.40
2018-01-16T09:55:17.570Z,5.40
2018-01-16T09:57:45.709Z,5.40
2018-01-16T10:00:13.847Z,5.50
2018-01-16T10:02:42.052Z,5.70
2018-01-16T10:05:10.153Z,5.70
2018-01-16T10:07:38.324Z,5.70
2018-01-16T10:10:06.389Z,5.50
2018-01-16T10:12:34.514Z,5.40
2018-01-16T10:15:02.649Z,5.40
2018-01-16T10:17:30.757Z,5.50
2018-01-16T10:19:58.881Z,6.00
2018-01-16T10:22:27.002Z,7.40
2018-01-16T10:24:55.142Z,6.60
2018-01-16T10:27:23.648Z,6.10
2018-01-16T10:29:51.777Z,5.90
2018-01-16T10:32:19.884Z,5.70
2018-01-16T10:37:22.392Z,5.70
2018-01-16T10:39:50.516Z,5.70
2018-01-16T10:42:18.667Z,5.70
2018-01-16T10:44:47.556Z,5.60
2018-01-16T10:47:15.724Z,5.60
2018-01-16T10:49:44.601Z,5.70
2018-01-16T10:52:13.509Z,5.90
2018-01-16T10:54:41.622Z,5.90
2018-01-16T10:57:09.733Z,6.10
2018-01-16T10:59:38.700Z,7.00
2018-01-16T11:02:06.824Z,7.00
2018-01-16T11:04:34.968Z,6.60
2018-01-16T11:07:03.840Z,6.40
2018-01-16T11:09:31.967Z,6.40
2018-01-16T11:12:00.082Z,6.70
2018-01-16T11:14:28.216Z,6.60
2018-01-16T11:16:56.323Z,6.70
2018-01-16T11:19:24.460Z,6.70
2018-01-16T11:21:52.578Z,6.70
2018-01-16T11:24:21.454Z,6.50
2018-01-16T11:26:49.575Z,6.40
2018-01-16T11:29:17.691Z,6.50
2018-01-16T11:31:45.815Z,6.50
2018-01-16T11:34:13.927Z,6.50
2018-01-16T11:36:42.057Z,6.50
2018-01-16T11:39:10.169Z,6.60
2018-01-16T11:41:38.444Z,6.60
2018-01-16T11:44:06.560Z,6.50
2018-01-16T11:46:34.718Z,6.40
2018-01-16T11:49:03.633Z,6.40
2018-01-16T11:51:31.885Z,6.40
2018-01-16T11:54:00.787Z,6.20
2018-01-16T11:56:28.905Z,6.10
2018-01-16T11:58:57.805Z,5.90
2018-01-16T12:01:25.926Z,5.90
2018-01-16T12:03:54.051Z,5.80
2018-01-16T12:06:22.164Z,5.70
2018-01-16T12:08:50.283Z,5.70
2018-01-16T12:11:18.404Z,5.80
2018-01-16T12:13:46.541Z,5.90
2018-01-16T12:16:14.654Z,5.90
2018-01-16T12:18:42.796Z,5.90
2018-01-16T12:21:11.758Z,5.90
2018-01-16T12:23:39.873Z,5.80
2018-01-16T12:26:08.006Z,5.90
2018-01-16T12:28:36.116Z,5.90
2018-01-16T12:31:04.254Z,5.80
2018-01-16T12:33:32.367Z,5.70
2018-01-16T12:36:00.488Z,5.70
2018-01-16T12:38:28.602Z,5.60
2018-01-16T12:40:56.900Z,5.70
2018-01-16T12:43:25.018Z,5.60
2018-01-16T12:45:53.150Z,4.80
2018-01-16T12:48:21.272Z,4.00
2018-01-16T12:50:50.150Z,3.60
2018-01-16T12:53:18.291Z,3.60
2018-01-16T12:55:46.392Z,3.60
2018-01-16T12:58:14.540Z,3.70
2018-01-16T13:00:42.652Z,3.90
2018-01-16T13:03:10.784Z,4.00
2018-01-16T13:05:38.913Z,4.10
2018-01-16T13:08:07.058Z,4.30
2018-01-16T13:10:35.937Z,4.40
2018-01-16T13:13:04.816Z,4.40
2018-01-16T13:15:32.950Z,4.40
2018-01-16T13:18:01.152Z,4.40
2018-01-16T13:20:29.337Z,4.40
2018-01-16T13:22:57.398Z,4.50
2018-01-16T13:25:25.526Z,4.40
2018-01-16T13:27:53.648Z,4.50
2018-01-16T13:30:21.789Z,4.40
2018-01-16T13:32:49.896Z,4.60
2018-01-16T13:35:18.794Z,4.70
2018-01-16T13:37:47.675Z,4.90
2018-01-16T13:40:15.781Z,4.90
2018-01-16T13:42:43.901Z,5.00
2018-01-16T13:45:12.029Z,5.00
2018-01-16T13:47:40.182Z,5.00
2018-01-16T13:50:08.293Z,5.10
2018-01-16T13:52:36.420Z,5.10
2018-01-16T13:55:04.525Z,5.00
2018-01-16T13:57:32.656Z,5.00
2018-01-16T14:00:01.895Z,5.10
2018-01-16T14:02:30.005Z,5.10
2018-01-16T14:04:58.127Z,5.10
2018-01-16T14:07:26.245Z,5.00
2018-01-16T14:09:54.388Z,5.00
2018-01-16T14:12:22.544Z,5.00
2018-01-16T14:14:50.676Z,5.10
2018-01-16T14:17:18.902Z,5.00
2018-01-16T14:19:47.077Z,5.00
2018-01-16T14:22:15.193Z,5.00
2018-01-16T14:24:44.080Z,5.00
2018-01-16T14:27:12.983Z,5.00
2018-01-16T14:29:41.875Z,4.90
2018-01-16T14:32:10.266Z,5.00
2018-01-16T14:34:39.146Z,4.90
2018-01-16T14:37:07.259Z,4.90
2018-01-16T14:39:35.373Z,4.90
2018-01-16T14:42:04.297Z,4.90
2018-01-16T14:44:32.408Z,4.90
2018-01-16T14:47:00.544Z,4.80
2018-01-16T14:49:28.664Z,4.80
2018-01-16T14:51:57.555Z,4.70
2018-01-16T14:54:25.672Z,4.70
2018-01-16T14:56:53.816Z,4.70
2018-01-16T14:59:21.927Z,4.70
2018-01-16T15:01:50.846Z,4.70
2018-01-16T15:04:18.971Z,4.70
2018-01-16T15:06:47.071Z,4.70
2018-01-16T15:09:15.201Z,4.80
2018-01-16T15:11:43.332Z,4.80
2018-01-16T15:14:12.238Z,4.90
2018-01-16T15:16:40.350Z,4.80
2018-01-16T15:19:08.543Z,4.80
2018-01-16T15:21:36.652Z,4.80
2018-01-16T15:24:04.782Z,4.90
2018-01-16T15:26:32.900Z,4.90
2018-01-16T15:29:01.032Z,4.80
2018-01-16T15:31:29.154Z,4.90
2018-01-16T15:33:57.313Z,4.90
2018-01-16T15:36:25.444Z,4.90
2018-01-16T15:38:53.559Z,4.80
2018-01-16T15:41:21.701Z,4.80
2018-01-16T15:43:49.832Z,4.80
2018-01-16T15:46:18.007Z,4.80
2018-01-16T15:48:46.128Z,4.70
2018-01-16T15:51:15.021Z,4.70
2018-01-16T15:53:43.908Z,4.60
2018-01-16T15:56:12.828Z,4.60
2018-01-16T15:58:40.964Z,4.60
2018-01-16T16:01:09.861Z,4.60
2018-01-16T16:03:38.736Z,4.60
2018-01-16T16:06:07.614Z,4.60
2018-01-16T16:08:35.744Z,4.60
2018-01-16T16:11:04.205Z,4.60
2018-01-16T16:13:33.092Z,4.50
2018-01-16T16:16:01.972Z,4.40
2018-01-16T16:18:30.105Z,4.40
2018-01-16T16:20:58.221Z,4.40
2018-01-16T16:23:26.358Z,4.40
2018-01-16T16:25:54.479Z,4.30
2018-01-16T16:28:22.609Z,4.30
2018-01-16T16:30:50.716Z,4.30
2018-01-16T16:33:18.840Z,4.30
2018-01-16T16:35:46.943Z,4.30
2018-01-16T16:38:15.077Z,4.20
2018-01-16T16:40:43.201Z,4.20
2018-01-16T16:43:11.339Z,4.10
2018-01-16T16:45:39.455Z,4.10
2018-01-16T16:48:07.569Z,4.10
2018-01-16T16:50:35.706Z,4.10
2018-01-16T16:53:04.950Z,4.00
2018-01-16T16:55:33.064Z,4.00
2018-01-16T16:58:01.175Z,4.10
2018-01-16T17:00:30.081Z,4.00
2018-01-16T17:02:58.961Z,4.10
2018-01-16T17:05:27.872Z,4.10
2018-01-16T17:07:57.652Z,4.00
2018-01-16T17:10:26.553Z,4.10
2018-01-16T17:12:54.741Z,4.00
2018-01-16T17:15:23.662Z,4.10
2018-01-16T17:17:51.792Z,4.10
2018-01-16T17:20:20.716Z,4.10
2018-01-16T17:22:49.613Z,4.10
2018-01-16T17:25:17.741Z,4.10
2018-01-16T17:27:46.661Z,4.20
2018-01-16T17:30:14.772Z,4.10
2018-01-16T17:32:42.882Z,4.20
2018-01-16T17:35:11.768Z,4.20
2018-01-16T17:37:40.660Z,4.20
2018-01-16T17:40:08.833Z,4.20
2018-01-16T17:42:37.726Z,4.20
2018-01-16T17:45:05.851Z,4.20
2018-01-16T17:47:34.008Z,4.20
2018-01-16T17:50:02.176Z,4.20
2018-01-16T17:52:30.297Z,4.20
2018-01-16T17:54:59.192Z,4.20
2018-01-16T17:57:28.079Z,4.10
2018-01-16T17:59:56.993Z,4.20
2018-01-16T18:02:25.120Z,4.20
2018-01-16T18:04:53.256Z,4.20
2018-01-16T18:07:21.380Z,4.10
2018-01-16T18:09:50.261Z,4.00
2018-01-16T18:12:18.420Z,4.00
2018-01-16T18:14:46.569Z,4.20
2018-01-16T18:17:14.711Z,4.10
2018-01-16T18:19:42.937Z,4.10
2018-01-16T18:22:11.079Z,4.10
2018-01-16T18:24:39.180Z,4.00
2018-01-16T18:27:07.313Z,4.00
2018-01-16T18:29:35.429Z,4.00
2018-01-16T18:32:03.555Z,4.10
2018-01-16T18:34:31.668Z,4.00
2018-01-16T18:36:59.835Z,4.00
2018-01-16T18:39:27.969Z,4.10
2018-01-16T18:41:56.092Z,4.10
2018-01-16T18:44:25.030Z,4.00
2018-01-16T18:46:53.148Z,4.00
2018-01-16T18:49:21.253Z,4.00
2018-01-16T18:51:49.434Z,4.10
2018-01-16T18:54:17.558Z,4.00
2018-01-16T18:56:45.771Z,4.00
2018-01-16T18:59:13.890Z,4.10
2018-01-16T19:01:42.020Z,4.00
2018-01-16T19:04:10.161Z,4.10
2018-01-16T19:06:39.198Z,4.10
2018-01-16T19:09:07.318Z,4.10
2018-01-16T19:11:35.505Z,4.10
2018-01-16T19:14:03.814Z,4.10
2018-01-16T19:16:32.035Z,4.10
2018-01-16T19:19:00.138Z,4.10
2018-01-16T19:21:28.454Z,4.10
2018-01-16T19:23:56.745Z,4.00
2018-01-16T19:26:25.036Z,4.00
2018-01-16T19:28:53.413Z,3.90
2018-01-16T19:31:37.271Z,3.80
2018-01-16T19:34:17.378Z,3.80
2018-01-16T19:36:45.500Z,3.90
2018-01-16T19:39:13.743Z,3.80
2018-01-16T19:41:42.751Z,3.80
2018-01-16T19:44:10.929Z,3.80
2018-01-16T19:46:40.009Z,3.80
2018-01-16T19:49:08.330Z,3.80
2018-01-16T19:51:36.470Z,3.90
2018-01-16T19:54:05.380Z,4.00
2018-01-16T19:56:34.562Z,4.10
2018-01-16T19:59:02.851Z,4.00
2018-01-16T20:01:31.858Z,4.10
2018-01-16T20:04:00.166Z,4.10
2018-01-16T20:06:29.142Z,4.10
2018-01-16T20:08:57.535Z,4.10
2018-01-16T20:11:26.644Z,4.10
2018-01-16T20:13:55.610Z,4.00
2018-01-16T20:16:24.704Z,4.00
2018-01-16T20:18:52.996Z,4.20
2018-01-16T20:21:21.314Z,4.10
2018-01-16T20:23:49.708Z,4.10
2018-01-16T20:26:18.850Z,4.00
2018-01-16T20:28:47.199Z,4.00
2018-01-16T20:31:16.279Z,4.00
2018-01-16T20:33:44.565Z,4.00
2018-01-16T20:36:12.890Z,4.10
2018-01-16T20:38:41.025Z,4.00
2018-01-16T20:41:09.162Z,4.00
2018-01-16T20:43:37.471Z,4.00
2018-01-16T20:46:05.835Z,4.00
2018-01-16T20:48:34.048Z,4.00
2018-01-16T20:51:02.496Z,3.90
2018-01-16T20:53:31.655Z,3.90
2018-01-16T20:55:59.981Z,3.90
2018-01-16T20:58:29.069Z,3.80
2018-01-16T21:00:57.362Z,3.80
2018-01-16T21:03:25.606Z,3.80
2018-01-16T21:05:53.953Z,3.80
2018-01-16T21:08:22.395Z,3.80
2018-01-16T21:10:51.418Z,3.70
2018-01-16T21:13:19.612Z,3.70
2018-01-16T21:15:48.563Z,3.70
2018-01-16T21:18:16.781Z,3.70
2018-01-16T21:20:45.004Z,3.70
2018-01-16T21:23:13.906Z,3.60
2018-01-16T21:25:42.095Z,3.60
2018-01-16T21:28:10.189Z,3.50
2018-01-16T21:30:38.434Z,3.40
2018-01-16T21:33:06.561Z,3.30
2018-01-16T21:35:34.701Z,3.30
2018-01-16T21:38:02.817Z,3.20
2018-01-16T21:40:31.743Z,3.20
2018-01-16T21:42:59.949Z,3.10
2018-01-16T21:45:28.076Z,3.10
2018-01-16T21:47:56.310Z,3.00
2018-01-16T21:50:24.482Z,2.90
2018-01-16T21:52:52.610Z,2.80
2018-01-16T21:55:20.815Z,2.80
2018-01-16T21:57:49.009Z,2.70
2018-01-16T22:00:17.499Z,2.70
2018-01-16T22:02:45.707Z,2.70
2018-01-16T22:05:14.035Z,2.70
2018-01-16T22:07:42.218Z,2.70
2018-01-16T22:10:10.498Z,2.70
2018-01-16T22:12:38.701Z,2.60
2018-01-16T22:15:06.877Z,2.60
2018-01-16T22:17:35.336Z,2.60
2018-01-16T22:20:03.792Z,2.60
2018-01-16T22:22:32.171Z,2.60
2018-01-16T22:25:01.279Z,2.60
2018-01-16T22:27:29.559Z,2.60
2018-01-16T22:29:58.029Z,2.60
2018-01-16T22:32:27.056Z,2.70
2018-01-16T22:34:55.411Z,2.60
2018-01-16T22:37:23.681Z,2.60
2018-01-16T22:39:51.911Z,2.50
2018-01-16T22:42:20.112Z,2.50
2018-01-16T22:44:48.312Z,2.40
2018-01-16T22:47:16.558Z,2.50
2018-01-16T22:49:44.936Z,2.40
2018-01-16T22:52:13.312Z,2.40
2018-01-16T22:54:41.521Z,2.40
2018-01-16T22:57:09.828Z,2.30
2018-01-16T22:59:38.055Z,2.40
2018-01-16T23:02:06.525Z,2.30
2018-01-16T23:04:36.010Z,2.30
2018-01-16T23:07:04.190Z,2.30
2018-01-16T23:09:32.541Z,2.30
2018-01-16T23:12:01.718Z,2.20
2018-01-16T23:14:31.202Z,2.20
2018-01-16T23:16:59.496Z,2.20
2018-01-16T23:19:27.825Z,2.30
2018-01-16T23:21:56.945Z,2.30
2018-01-16T23:24:25.131Z,2.30
2018-01-16T23:26:53.391Z,2.50
2018-01-16T23:29:21.564Z,2.40
2018-01-16T23:31:50.093Z,2.30
2018-01-16T23:34:18.280Z,2.40
2018-01-16T23:36:46.445Z,2.40
2018-01-16T23:39:15.417Z,2.40
2018-01-16T23:41:44.014Z,2.40
2018-01-16T23:44:13.120Z,2.30
2018-01-16T23:46:41.278Z,2.30
2018-01-16T23:49:09.574Z,2.20
2018-01-16T23:51:37.782Z,2.20
2018-01-16T23:54:06.009Z,2.20
2018-01-16T23:56:34.141Z,2.20
2018-01-16T23:59:02.480Z,2.20
